Time;durP1;ratioP1;P1;durP2;ratioP2;P2;SDS_P1;SDS_P2;PMS_P1;PMS_P2;Temp;Humidity;BMP_temperature;BMP_pressure;BME280_temperature;BME280_humidity;BME280_pressure;Samples;Min_cycle;Max_cycle;Signal;HPM_P1;HPM_P2
2024/01/18 00:01:32;;;;;;;66.10;60.57;;;-2.10;87.80;;;;;;5055319;28;20207;-87
2024/01/18 00:03:59;;;;;;;63.13;57.87;;;-2.00;87.90;;;;;;5056751;28;20193;-87
2024/01/18 00:06:24;;;;;;;68.23;62.23;;;-2.10;87.90;;;;;;5056226;28;20200;-87
2024/01/18 00:08:50;;;;;;;39.17;34.90;;;-2.30;87.50;;;;;;5055522;28;20172;-87
2024/01/18 00:11:16;;;;;;;41.53;37.33;;;-2.50;88.00;;;;;;5057356;28;20179;-87
2024/01/18 00:13:42;;;;;;;38.73;34.73;;;-2.40;88.50;;;;;;5057144;28;20219;-87
2024/01/18 00:16:08;;;;;;;41.23;35.83;;;-2.40;88.60;;;;;;5056222;28;20173;-87
2024/01/18 00:18:34;;;;;;;41.23;35.87;;;-2.30;88.80;;;;;;5055939;28;20654;-87
2024/01/18 00:20:59;;;;;;;38.70;34.90;;;-2.20;88.70;;;;;;5055274;28;20210;-87
2024/01/18 00:23:25;;;;;;;47.80;40.37;;;-2.20;88.60;;;;;;5054983;28;20194;-87
2024/01/18 00:25:51;;;;;;;40.27;36.10;;;-2.20;88.40;;;;;;5056606;28;20206;-88
2024/01/18 00:28:16;;;;;;;42.73;38.10;;;-2.10;88.50;;;;;;5055092;28;20222;-88
2024/01/18 00:30:42;;;;;;;41.10;36.87;;;-2.20;88.20;;;;;;5052567;28;20182;-88
2024/01/18 00:33:07;;;;;;;43.20;38.83;;;-2.20;88.20;;;;;;5054180;28;20202;-88
2024/01/18 00:35:33;;;;;;;39.17;35.37;;;-2.60;88.20;;;;;;5055705;28;20195;-89
2024/01/18 00:37:58;;;;;;;40.10;36.03;;;-2.60;88.60;;;;;;5054033;28;20202;-90
2024/01/18 00:40:24;;;;;;;37.60;33.90;;;-2.50;88.90;;;;;;5054839;28;20187;-87
2024/01/18 00:42:49;;;;;;;39.17;35.20;;;-2.40;89.00;;;;;;5056248;28;20226;-87
2024/01/18 00:45:15;;;;;;;39.63;35.73;;;-2.40;88.80;;;;;;5055429;28;20197;-87
2024/01/18 00:47:40;;;;;;;41.60;37.17;;;-2.50;88.70;;;;;;5055358;28;20558;-87
2024/01/18 00:50:06;;;;;;;40.30;36.27;;;-2.50;88.70;;;;;;5055682;28;20255;-87
2024/01/18 00:52:32;;;;;;;39.63;35.63;;;-2.40;88.70;;;;;;5056788;28;20266;-87
2024/01/18 00:54:58;;;;;;;39.93;35.83;;;-2.30;88.70;;;;;;5055499;28;20176;-87
2024/01/18 00:57:23;;;;;;;39.93;35.83;;;-2.30;88.50;;;;;;5055685;28;20196;-87
2024/01/18 00:59:49;;;;;;;41.43;37.47;;;-2.30;88.30;;;;;;5056415;28;20228;-87
2024/01/18 01:02:14;;;;;;;41.40;37.23;;;-2.40;88.00;;;;;;5056089;28;20210;-87
2024/01/18 01:04:46;;;;;;;43.23;38.70;;;-2.60;88.40;;;;;;5054593;28;20262;-86
2024/01/18 01:07:12;;;;;;;42.40;35.20;;;-2.70;89.20;;;;;;5054630;28;20192;-86
2024/01/18 01:09:37;;;;;;;41.10;33.50;;;-2.70;90.20;;;;;;5054820;28;20550;-87
2024/01/18 01:12:03;;;;;;;58.40;47.73;;;-2.70;90.60;;;;;;5055154;28;20298;-86
2024/01/18 01:14:29;;;;;;;51.60;45.27;;;-2.70;91.10;;;;;;5055217;28;20176;-87
2024/01/18 01:16:55;;;;;;;50.90;45.50;;;-2.60;91.20;;;;;;5055066;28;20263;-87
2024/01/18 01:19:20;;;;;;;57.23;51.60;;;-2.60;91.30;;;;;;5056422;28;20300;-87
2024/01/18 01:21:46;;;;;;;49.10;40.33;;;-2.90;91.30;;;;;;5055335;28;20207;-87
2024/01/18 01:24:11;;;;;;;36.50;32.43;;;-2.80;91.60;;;;;;5055811;28;20177;-87
2024/01/18 01:26:37;;;;;;;36.30;30.50;;;-2.70;91.60;;;;;;5053933;28;20717;-87
2024/01/18 01:29:03;;;;;;;46.90;42.57;;;-2.60;91.70;;;;;;5053753;28;20263;-87
2024/01/18 01:31:28;;;;;;;49.83;44.97;;;-2.60;91.60;;;;;;5053692;28;20183;-87
2024/01/18 01:33:54;;;;;;;50.87;46.13;;;-2.60;91.50;;;;;;5053656;28;20177;-87
2024/01/18 01:36:19;;;;;;;53.20;48.57;;;-2.60;91.50;;;;;;5053423;28;20184;-87
2024/01/18 01:38:45;;;;;;;57.43;52.47;;;-2.60;91.40;;;;;;5054833;28;20180;-87
2024/01/18 01:41:11;;;;;;;59.07;54.10;;;-2.70;91.20;;;;;;5054108;28;20266;-87
2024/01/18 01:43:36;;;;;;;62.67;57.07;;;-2.80;91.10;;;;;;5053323;28;20208;-87
2024/01/18 01:46:02;;;;;;;65.73;59.93;;;-2.80;90.90;;;;;;5053217;28;20674;-87
2024/01/18 01:48:28;;;;;;;67.83;61.73;;;-2.80;90.60;;;;;;5053423;28;20290;-87
2024/01/18 01:50:54;;;;;;;68.67;62.70;;;-2.70;90.50;;;;;;5053494;28;20262;-87
2024/01/18 01:53:20;;;;;;;67.13;61.17;;;-2.70;90.20;;;;;;5053712;28;20329;-87
2024/01/18 01:55:46;;;;;;;69.47;63.03;;;-2.70;90.40;;;;;;5052915;28;20183;-90
2024/01/18 01:58:15;;;;;;;69.50;62.97;;;-2.70;90.30;;;;;;5054281;28;20204;-87
2024/01/18 02:00:41;;;;;;;66.13;59.90;;;-3.00;90.40;;;;;;5054631;28;20608;-87
2024/01/18 02:03:08;;;;;;;64.03;57.87;;;-3.10;90.70;;;;;;5053668;28;20207;-87
2024/01/18 02:05:34;;;;;;;50.87;36.33;;;-3.00;91.00;;;;;;5053863;28;20639;-87
2024/01/18 02:07:59;;;;;;;44.40;36.70;;;-3.00;91.00;;;;;;5053748;28;20241;-86
2024/01/18 02:10:25;;;;;;;46.40;37.00;;;-3.10;91.30;;;;;;5054940;28;20183;-87
2024/01/18 02:12:51;;;;;;;57.83;52.13;;;-3.20;91.40;;;;;;5053987;28;20179;-87
2024/01/18 02:15:18;;;;;;;55.27;49.63;;;-3.10;91.60;;;;;;5053602;28;20181;-87
2024/01/18 02:17:44;;;;;;;56.17;50.67;;;-3.10;91.60;;;;;;5054670;28;20200;-87
2024/01/18 02:20:10;;;;;;;57.17;51.43;;;-3.20;91.60;;;;;;5054646;28;20168;-87
2024/01/18 02:22:42;;;;;;;59.40;53.60;;;-3.30;91.50;;;;;;5054691;28;20192;-87
2024/01/18 02:25:24;;;;;;;57.83;52.30;;;-3.20;91.50;;;;;;5053571;28;20195;-86
2024/01/18 02:27:56;;;;;;;63.00;57.07;;;-3.30;91.30;;;;;;5053640;28;20666;-87
2024/01/18 02:30:22;;;;;;;57.10;51.43;;;-3.40;91.30;;;;;;5053471;28;20172;-87
2024/01/18 02:32:48;;;;;;;57.87;51.63;;;-3.40;91.50;;;;;;5053451;28;20267;-87
2024/01/18 02:35:15;;;;;;;59.70;53.60;;;-3.40;91.50;;;;;;5053323;28;20227;-87
2024/01/18 02:37:40;;;;;;;57.50;51.80;;;-3.40;91.50;;;;;;5054131;28;20198;-86
2024/01/18 02:40:07;;;;;;;54.30;48.90;;;-3.40;91.60;;;;;;5053166;28;20172;-87
2024/01/18 02:42:32;;;;;;;52.13;47.20;;;-3.30;91.70;;;;;;5053170;28;20203;-87
2024/01/18 02:44:58;;;;;;;52.53;47.40;;;-3.20;91.80;;;;;;5052984;28;20178;-87
2024/01/18 02:47:25;;;;;;;54.97;50.10;;;-3.10;91.80;;;;;;5053068;28;20279;-87
2024/01/18 02:49:50;;;;;;;35.00;31.07;;;-3.10;91.70;;;;;;5052797;28;20225;-87
2024/01/18 02:52:18;;;;;;;43.87;33.33;;;-3.10;91.60;;;;;;5052727;28;20179;-87
2024/01/18 02:54:44;;;;;;;35.10;31.67;;;-3.10;91.50;;;;;;5055911;28;20252;-87
2024/01/18 02:57:09;;;;;;;56.33;51.23;;;-3.10;91.30;;;;;;5056238;28;20636;-87
2024/01/18 02:59:35;;;;;;;58.50;53.30;;;-3.10;91.00;;;;;;5056171;28;20566;-87
2024/01/18 03:02:00;;;;;;;55.63;50.30;;;-3.10;90.90;;;;;;5056049;28;20207;-87
2024/01/18 03:04:26;;;;;;;63.53;58.13;;;-3.20;90.50;;;;;;5055924;28;20172;-87
2024/01/18 03:06:52;;;;;;;60.77;55.73;;;-3.20;90.40;;;;;;5056743;28;20202;-87
2024/01/18 03:09:17;;;;;;;58.40;53.70;;;-3.20;90.30;;;;;;5055636;28;20238;-87
2024/01/18 03:11:42;;;;;;;61.03;55.97;;;-3.20;89.90;;;;;;5055630;28;20180;-87
2024/01/18 03:14:08;;;;;;;39.43;35.50;;;-3.30;89.60;;;;;;5055868;28;20183;-87
2024/01/18 03:16:36;;;;;;;42.77;38.47;;;-3.30;89.30;;;;;;5055962;28;20679;-87
2024/01/18 03:19:02;;;;;;;41.20;35.03;;;-3.40;89.10;;;;;;5056896;28;20254;-87
2024/01/18 03:21:27;;;;;;;38.37;34.67;;;-3.40;89.40;;;;;;5056885;28;20279;-87
2024/01/18 03:23:53;;;;;;;38.40;34.60;;;-3.40;89.40;;;;;;5056177;28;20175;-86
2024/01/18 03:26:18;;;;;;;40.53;34.40;;;-3.60;89.80;;;;;;5055566;28;20671;-87
2024/01/18 03:28:44;;;;;;;38.37;34.17;;;-3.70;89.90;;;;;;5055633;28;20176;-86
2024/01/18 03:31:11;;;;;;;41.53;34.63;;;-3.60;90.40;;;;;;5056545;28;20239;-87
2024/01/18 03:33:38;;;;;;;40.57;32.97;;;-3.70;90.50;;;;;;5055262;28;20531;-87
2024/01/18 03:36:05;;;;;;;40.27;35.07;;;-3.70;90.70;;;;;;5056903;28;20554;-86
2024/01/18 03:38:30;;;;;;;43.03;35.87;;;-3.70;90.80;;;;;;5055987;28;20223;-87
2024/01/18 03:40:56;;;;;;;38.37;34.00;;;-3.70;91.00;;;;;;5056662;28;20231;-87
2024/01/18 03:43:21;;;;;;;36.57;32.53;;;-3.80;91.10;;;;;;5055484;28;20741;-87
2024/01/18 03:45:47;;;;;;;40.93;32.17;;;-3.90;91.20;;;;;;5055422;28;20177;-86
2024/01/18 03:48:12;;;;;;;38.00;32.33;;;-3.90;91.40;;;;;;5056248;28;20201;-86
2024/01/18 03:50:38;;;;;;;40.60;32.30;;;-3.90;91.40;;;;;;5055210;28;20181;-87
2024/01/18 03:53:04;;;;;;;34.23;30.50;;;-3.90;91.60;;;;;;5054820;28;20189;-87
2024/01/18 03:55:29;;;;;;;31.27;27.90;;;-3.80;91.70;;;;;;5054727;28;20179;-87
2024/01/18 03:57:55;;;;;;;31.97;28.70;;;-3.80;91.70;;;;;;5055818;28;20609;-87
2024/01/18 04:00:21;;;;;;;34.97;29.63;;;-3.90;91.60;;;;;;5055119;28;20168;-86
2024/01/18 04:02:47;;;;;;;33.97;30.47;;;-4.00;91.40;;;;;;5054609;28;20251;-87
2024/01/18 04:05:12;;;;;;;34.07;30.47;;;-4.00;91.30;;;;;;5054309;28;20304;-87
2024/01/18 04:07:38;;;;;;;35.33;31.60;;;-4.00;91.30;;;;;;5055405;28;20190;-87
2024/01/18 04:10:04;;;;;;;36.07;31.97;;;-4.00;91.10;;;;;;5055475;28;20173;-87
2024/01/18 04:12:30;;;;;;;35.17;31.83;;;-4.00;90.80;;;;;;5054022;28;20183;-87
2024/01/18 04:14:56;;;;;;;56.93;52.00;;;-4.10;90.50;;;;;;5054009;28;20189;-86
2024/01/18 04:17:21;;;;;;;60.13;55.03;;;-4.10;90.20;;;;;;5054081;28;20223;-86
2024/01/18 04:19:47;;;;;;;65.73;60.17;;;-4.30;89.70;;;;;;5053995;28;20180;-86
2024/01/18 04:22:13;;;;;;;63.77;58.47;;;-4.30;89.20;;;;;;5053793;28;20671;-86
2024/01/18 04:24:38;;;;;;;57.10;52.50;;;-4.30;89.00;;;;;;5053868;28;20175;-86
2024/01/18 04:27:04;;;;;;;61.80;56.40;;;-4.30;88.90;;;;;;5053773;28;20219;-86
2024/01/18 04:29:30;;;;;;;62.20;56.97;;;-4.30;88.70;;;;;;5053646;28;20596;-86
2024/01/18 04:31:55;;;;;;;40.17;36.23;;;-4.30;88.60;;;;;;5053423;28;20187;-86
2024/01/18 04:34:21;;;;;;;40.93;36.70;;;-4.30;88.60;;;;;;5053422;28;20648;-86
2024/01/18 04:36:46;;;;;;;43.23;38.50;;;-4.30;89.00;;;;;;5053243;28;20206;-87
2024/01/18 04:39:12;;;;;;;65.67;59.43;;;-4.30;89.20;;;;;;5054791;28;20202;-86
2024/01/18 04:41:37;;;;;;;63.33;57.43;;;-4.30;89.50;;;;;;5053297;28;20587;-87
2024/01/18 04:44:03;;;;;;;63.07;57.23;;;-4.30;89.60;;;;;;5053293;28;20546;-86
2024/01/18 04:46:30;;;;;;;64.17;58.57;;;-4.40;89.70;;;;;;5053108;28;20199;-86
2024/01/18 04:48:56;;;;;;;58.93;53.93;;;-4.40;89.70;;;;;;5053135;28;20178;-86
2024/01/18 04:51:21;;;;;;;61.03;55.83;;;-4.30;89.90;;;;;;5053068;28;20181;-86
2024/01/18 04:53:47;;;;;;;55.33;50.30;;;-4.30;89.90;;;;;;5053180;28;20177;-87
2024/01/18 04:56:12;;;;;;;52.93;47.93;;;-4.30;89.80;;;;;;5053054;28;20190;-86
2024/01/18 04:58:38;;;;;;;57.03;51.97;;;-4.30;89.60;;;;;;5054244;28;20181;-87
2024/01/18 05:01:04;;;;;;;55.50;50.63;;;-4.30;89.50;;;;;;5053848;28;20211;-87
2024/01/18 05:03:31;;;;;;;58.53;53.07;;;-4.30;89.30;;;;;;5052724;28;20179;-87
2024/01/18 05:05:57;;;;;;;56.67;50.63;;;-4.30;89.30;;;;;;5054106;28;20182;-87
2024/01/18 05:08:23;;;;;;;55.63;50.63;;;-4.30;89.50;;;;;;5053822;28;20201;-86
2024/01/18 05:10:49;;;;;;;52.20;47.67;;;-4.30;89.70;;;;;;5054084;28;20181;-87
2024/01/18 05:13:14;;;;;;;53.40;48.63;;;-4.30;89.80;;;;;;5053805;28;20178;-87
2024/01/18 05:15:40;;;;;;;44.83;35.23;;;-4.30;89.80;;;;;;5053156;28;20656;-86
2024/01/18 05:18:08;;;;;;;38.33;34.23;;;-4.30;89.50;;;;;;5053534;28;20198;-86
2024/01/18 05:20:34;;;;;;;41.47;37.10;;;-4.40;89.20;;;;;;5053575;28;20248;-86
2024/01/18 05:22:59;;;;;;;67.87;61.90;;;-4.60;88.70;;;;;;5052547;28;20599;-86
2024/01/18 05:25:25;;;;;;;63.87;58.43;;;-4.70;88.10;;;;;;5052501;28;20193;-86
2024/01/18 05:27:51;;;;;;;62.60;57.07;;;-4.70;87.70;;;;;;5051940;28;20288;-86
2024/01/18 05:30:16;;;;;;;67.37;61.23;;;-4.70;87.90;;;;;;5051977;28;20203;-86
2024/01/18 05:32:42;;;;;;;63.97;58.43;;;-4.60;88.40;;;;;;5052031;28;20184;-86
2024/01/18 05:35:08;;;;;;;63.87;58.47;;;-4.60;88.60;;;;;;5053122;28;20188;-86
2024/01/18 05:37:33;;;;;;;65.40;59.47;;;-4.50;88.90;;;;;;5053437;28;20618;-86
2024/01/18 05:39:59;;;;;;;66.23;60.13;;;-4.50;89.00;;;;;;5051953;28;20553;-86
2024/01/18 05:42:26;;;;;;;66.43;59.97;;;-4.30;89.30;;;;;;5051877;28;20206;-86
2024/01/18 05:44:52;;;;;;;63.07;57.30;;;-4.30;89.60;;;;;;5051857;28;20193;-86
2024/01/18 05:47:17;;;;;;;56.33;50.80;;;-4.50;89.80;;;;;;5053122;28;20189;-86
2024/01/18 05:49:43;;;;;;;55.33;49.90;;;-4.50;90.20;;;;;;5051783;28;20180;-86
2024/01/18 05:52:08;;;;;;;43.97;36.23;;;-4.50;90.50;;;;;;5053245;28;20647;-86
2024/01/18 05:54:34;;;;;;;42.27;36.40;;;-4.60;90.80;;;;;;5051777;28;20242;-86
2024/01/18 05:57:01;;;;;;;40.13;35.20;;;-4.80;91.00;;;;;;5052930;28;20218;-86
2024/01/18 05:59:30;;;;;;;42.80;33.97;;;-4.90;91.20;;;;;;5051728;28;20179;-86
2024/01/18 06:01:56;;;;;;;41.77;34.87;;;-4.80;91.40;;;;;;5052944;28;20565;-86
2024/01/18 06:04:24;;;;;;;47.53;35.90;;;-4.60;91.60;;;;;;5051704;28;20199;-86
2024/01/18 06:06:49;;;;;;;44.00;35.97;;;-4.60;91.50;;;;;;5051606;28;20281;-86
2024/01/18 06:09:16;;;;;;;43.80;33.93;;;-4.60;91.80;;;;;;5051629;28;20234;-85
2024/01/18 06:11:44;;;;;;;42.47;33.73;;;-4.60;91.90;;;;;;5051519;28;20222;-86
2024/01/18 06:14:09;;;;;;;43.53;33.37;;;-4.40;92.20;;;;;;5051531;28;20172;-86
2024/01/18 06:16:35;;;;;;;40.90;31.10;;;-4.30;92.40;;;;;;5051479;28;20211;-85
2024/01/18 06:19:01;;;;;;;44.20;31.57;;;-4.20;92.60;;;;;;5052722;28;20196;-86
2024/01/18 06:21:26;;;;;;;42.17;31.20;;;-4.10;92.70;;;;;;5052899;28;20257;-86
2024/01/18 06:23:52;;;;;;;47.53;31.23;;;-4.10;92.70;;;;;;5052665;28;20168;-85
2024/01/18 06:26:17;;;;;;;40.93;31.40;;;-4.10;92.70;;;;;;5052472;28;20249;-85
2024/01/18 06:28:43;;;;;;;40.57;31.33;;;-4.10;92.80;;;;;;5054330;28;20168;-85
2024/01/18 06:31:08;;;;;;;38.50;30.10;;;-3.90;92.90;;;;;;5056885;28;20251;-85
2024/01/18 06:33:34;;;;;;;32.83;26.33;;;-4.00;92.90;;;;;;5056635;28;20255;-85
2024/01/18 06:36:00;;;;;;;26.00;18.33;;;-4.00;93.00;;;;;;5056640;28;20177;-86
2024/01/18 06:38:26;;;;;;;36.27;25.60;;;-3.40;93.70;;;;;;5056439;28;20190;-86
2024/01/18 06:40:52;;;;;;;37.20;25.83;;;-3.60;93.40;;;;;;5055135;28;20181;-85
2024/01/18 06:43:17;;;;;;;38.47;27.20;;;-3.60;93.50;;;;;;5056567;28;20291;-85
2024/01/18 06:45:43;;;;;;;37.83;28.23;;;-3.60;93.50;;;;;;5056422;28;20168;-86
2024/01/18 06:48:09;;;;;;;41.53;29.77;;;-3.60;93.50;;;;;;5056332;28;20569;-85
2024/01/18 06:50:35;;;;;;;37.10;29.07;;;-3.60;93.50;;;;;;5054981;28;20179;-86
2024/01/18 06:53:02;;;;;;;42.90;38.20;;;-3.60;93.50;;;;;;5055063;28;20181;-85
2024/01/18 06:55:28;;;;;;;42.13;36.60;;;-3.80;93.40;;;;;;5056454;28;20190;-85
2024/01/18 06:57:54;;;;;;;45.37;36.20;;;-3.60;93.50;;;;;;5056071;28;20227;-86
2024/01/18 07:00:20;;;;;;;43.20;38.50;;;-3.70;93.50;;;;;;5056131;28;20168;-86
2024/01/18 07:02:46;;;;;;;32.80;28.20;;;-3.70;93.50;;;;;;5055929;28;20192;-85
2024/01/18 07:05:12;;;;;;;35.00;30.57;;;-4.00;93.20;;;;;;5054754;28;20239;-86
2024/01/18 07:07:38;;;;;;;34.23;30.10;;;-4.20;93.10;;;;;;5055882;28;20660;-86
2024/01/18 07:10:04;;;;;;;39.37;33.40;;;-4.20;93.10;;;;;;5054673;28;20169;-86
2024/01/18 07:12:30;;;;;;;47.17;42.13;;;-4.30;93.10;;;;;;5054615;28;20186;-86
2024/01/18 07:14:56;;;;;;;50.17;44.80;;;-4.20;93.10;;;;;;5054505;28;20178;-85
2024/01/18 07:17:22;;;;;;;52.07;46.77;;;-4.10;93.10;;;;;;5054403;28;20584;-86
2024/01/18 07:19:49;;;;;;;48.57;42.43;;;-4.20;93.10;;;;;;5054426;28;20186;-85
2024/01/18 07:22:15;;;;;;;46.43;41.83;;;-4.00;93.30;;;;;;5054306;28;20265;-86
2024/01/18 07:24:41;;;;;;;46.40;39.17;;;-4.00;93.20;;;;;;5054479;28;20249;-85
2024/01/18 07:27:09;;;;;;;43.07;38.40;;;-4.00;93.30;;;;;;5055386;28;20260;-85
2024/01/18 07:29:35;;;;;;;42.00;37.73;;;-4.00;93.20;;;;;;5055546;28;20222;-85
2024/01/18 07:32:01;;;;;;;33.97;30.00;;;-3.80;93.40;;;;;;5054193;28;20178;-86
2024/01/18 07:34:27;;;;;;;39.83;32.20;;;-3.60;93.60;;;;;;5055353;28;20204;-85
2024/01/18 07:36:54;;;;;;;36.00;30.80;;;-3.20;94.00;;;;;;5056002;28;20740;-85
2024/01/18 07:39:20;;;;;;;;;;;-3.30;93.80;;;;;;5055257;28;19905;-85
2024/01/18 07:41:45;;;;;;;;;;;-3.20;93.90;;;;;;5054375;28;20319;-86
2024/01/18 07:44:11;;;;;;;;;;;-3.20;93.90;;;;;;5055691;28;19908;-85
2024/01/18 07:46:37;;;;;;;;;;;-3.30;93.90;;;;;;5055843;28;19905;-85
2024/01/18 07:49:03;;;;;;;;;;;-3.30;93.90;;;;;;5054331;28;19959;-85
2024/01/18 07:51:29;;;;;;;52.53;32.37;;;-3.20;94.10;;;;;;5053991;28;20000;-86
2024/01/18 07:53:54;;;;;;;34.40;26.90;;;-3.30;94.00;;;;;;5055026;28;20201;-85
2024/01/18 07:56:20;;;;;;;33.63;28.83;;;-3.40;94.00;;;;;;5054813;28;20180;-85
2024/01/18 07:58:45;;;;;;;43.70;31.07;;;-3.40;94.00;;;;;;5053707;28;20177;-85
2024/01/18 08:01:11;;;;;;;42.77;31.97;;;-3.30;94.10;;;;;;5053564;28;20213;-85
2024/01/18 08:03:37;;;;;;;40.10;34.00;;;-3.30;94.10;;;;;;5054971;28;20174;-85
2024/01/18 08:06:03;;;;;;;39.80;33.93;;;-3.20;94.10;;;;;;5055375;28;20176;-85
2024/01/18 08:08:28;;;;;;;42.40;36.10;;;-3.30;94.10;;;;;;5054747;28;20219;-85
2024/01/18 08:10:54;;;;;;;43.00;35.03;;;-3.40;94.00;;;;;;5053375;28;20679;-85
2024/01/18 08:13:20;;;;;;;49.90;36.73;;;-3.30;94.10;;;;;;5053392;28;20174;-85
2024/01/18 08:15:45;;;;;;;42.03;35.67;;;-3.30;94.10;;;;;;5054726;28;20208;-85
2024/01/18 08:18:11;;;;;;;45.17;34.13;;;-3.30;94.10;;;;;;5053283;28;20227;-85
2024/01/18 08:20:36;;;;;;;37.63;32.67;;;-3.20;94.20;;;;;;5054600;28;20179;-85
2024/01/18 08:23:02;;;;;;;37.30;33.03;;;-3.30;94.10;;;;;;5054538;28;20171;-85
2024/01/18 08:25:27;;;;;;;36.47;32.27;;;-3.40;94.00;;;;;;5054441;28;20572;-85
2024/01/18 08:27:56;;;;;;;34.10;30.80;;;-3.50;93.90;;;;;;5053015;28;20389;-85
2024/01/18 08:30:22;;;;;;;35.10;25.13;;;-3.60;93.80;;;;;;5054315;28;20223;-85
2024/01/18 08:32:47;;;;;;;32.60;25.20;;;-3.30;94.00;;;;;;5054192;28;20263;-84
2024/01/18 08:35:13;;;;;;;32.03;24.53;;;-3.20;94.10;;;;;;5054317;28;20171;-87
2024/01/18 08:37:38;;;;;;;35.23;30.80;;;-3.00;94.20;;;;;;5053027;28;20201;-84
2024/01/18 08:40:05;;;;;;;32.90;28.90;;;-3.00;94.20;;;;;;5054082;28;20178;-86
2024/01/18 08:42:30;;;;;;;46.53;34.80;;;-2.90;94.30;;;;;;5054083;28;20621;-86
2024/01/18 08:44:56;;;;;;;39.10;31.07;;;-2.70;94.30;;;;;;5054429;28;20175;-87
2024/01/18 08:47:23;;;;;;;34.07;28.57;;;-2.70;94.30;;;;;;5052627;28;20202;-86
2024/01/18 08:49:49;;;;;;;37.57;27.00;;;-2.60;94.30;;;;;;5054344;28;20247;-86
2024/01/18 08:52:15;;;;;;;34.03;22.83;;;-2.60;94.20;;;;;;5053075;28;20206;-88
2024/01/18 08:54:42;;;;;;;30.03;22.90;;;-2.60;94.20;;;;;;5054332;28;20171;-87
2024/01/18 08:57:08;;;;;;;32.77;21.27;;;-2.80;94.10;;;;;;5054074;28;20675;-86
2024/01/18 08:59:36;;;;;;;27.80;21.23;;;-2.70;94.20;;;;;;5053720;28;20175;-86
2024/01/18 09:02:02;;;;;;;27.73;22.33;;;-2.70;94.20;;;;;;5052468;28;20210;-85
2024/01/18 09:04:27;;;;;;;30.17;22.60;;;-2.60;94.30;;;;;;5053748;28;20170;-86
2024/01/18 09:06:53;;;;;;;25.60;21.00;;;-2.60;94.30;;;;;;5052294;28;20694;-86
2024/01/18 09:09:19;;;;;;;25.63;18.43;;;-2.50;94.40;;;;;;5053656;28;20601;-86
2024/01/18 09:11:44;;;;;;;25.53;16.87;;;-2.40;94.50;;;;;;5054242;28;20180;-86
2024/01/18 09:14:10;;;;;;;24.07;18.80;;;-2.30;94.50;;;;;;5052260;28;20547;-85
2024/01/18 09:16:36;;;;;;;22.80;18.37;;;-2.20;94.60;;;;;;5052282;28;20200;-89
2024/01/18 09:19:01;;;;;;;22.53;18.00;;;-2.20;94.60;;;;;;5053567;28;20183;-91
2024/01/18 09:21:27;;;;;;;26.43;19.30;;;-2.10;94.60;;;;;;5053663;28;20206;-88
2024/01/18 09:23:53;;;;;;;25.03;18.87;;;-2.00;94.60;;;;;;5052267;28;20169;-86
2024/01/18 09:26:18;;;;;;;23.60;19.53;;;-1.90;94.70;;;;;;5053153;28;20278;-86
2024/01/18 09:28:45;;;;;;;27.70;20.43;;;-1.90;94.70;;;;;;5052077;28;20175;-86
2024/01/18 09:31:11;;;;;;;24.53;18.10;;;-1.80;94.60;;;;;;5052107;28;20199;-86
2024/01/18 09:33:39;;;;;;;28.70;18.70;;;-1.90;94.60;;;;;;5053349;28;20180;-86
2024/01/18 09:36:05;;;;;;;26.50;18.47;;;-1.90;94.60;;;;;;5053290;28;20180;-86
2024/01/18 09:38:33;;;;;;;21.40;16.83;;;-1.90;94.60;;;;;;5052039;28;20175;-86
2024/01/18 09:41:04;;;;;;;19.60;15.70;;;-1.70;94.70;;;;;;5053268;28;20172;-86
2024/01/18 09:43:38;;;;;;;24.53;16.43;;;-1.70;94.60;;;;;;5053841;28;20152;-85
2024/01/18 09:46:08;;;;;;;24.97;16.40;;;-1.60;94.60;;;;;;5052380;28;20181;-86
2024/01/18 09:48:37;;;;;;;17.40;15.60;;;-1.60;94.60;;;;;;5053321;28;20204;-85
2024/01/18 09:51:06;;;;;;;21.23;14.80;;;-1.60;94.60;;;;;;5053645;28;20180;-87
2024/01/18 09:53:32;;;;;;;20.40;15.10;;;-1.40;94.60;;;;;;5052197;28;20616;-86
2024/01/18 09:56:09;;;;;;;24.47;17.77;;;-1.40;94.50;;;;;;5053343;28;20198;-86
2024/01/18 09:58:35;;;;;;;22.47;17.30;;;-1.30;94.50;;;;;;5053514;28;20172;-87
2024/01/18 10:01:04;;;;;;;18.33;15.10;;;-1.20;94.50;;;;;;5053513;28;20706;-86
2024/01/18 10:03:30;;;;;;;23.37;16.57;;;-1.20;94.50;;;;;;5053401;28;20251;-86
2024/01/18 10:05:55;;;;;;;23.80;17.23;;;-1.10;94.50;;;;;;5053390;28;20205;-86
2024/01/18 10:08:22;;;;;;;20.83;17.20;;;-1.10;94.40;;;;;;5053858;28;20195;-86
2024/01/18 10:10:47;;;;;;;18.40;16.53;;;-1.00;94.40;;;;;;5053182;28;20247;-86
2024/01/18 10:13:13;;;;;;;18.60;16.77;;;-0.90;94.40;;;;;;5051896;28;20211;-86
2024/01/18 10:15:39;;;;;;;18.37;16.57;;;-0.90;94.30;;;;;;5051907;28;20200;-87
2024/01/18 10:18:06;;;;;;;19.07;17.13;;;-0.90;94.30;;;;;;5053020;28;20191;-85
2024/01/18 10:20:32;;;;;;;20.93;17.73;;;-0.80;94.20;;;;;;5052985;28;20166;-86
2024/01/18 10:22:58;;;;;;;22.90;18.27;;;-0.70;94.20;;;;;;5053138;28;20201;-85
2024/01/18 10:25:26;;;;;;;18.67;17.10;;;-0.70;94.20;;;;;;5053583;28;20190;-85
2024/01/18 10:27:56;;;;;;;27.93;18.67;;;-0.70;94.10;;;;;;5052981;28;20262;-86
2024/01/18 10:30:22;;;;;;;20.07;18.17;;;-0.60;94.10;;;;;;5052781;28;20174;-85
2024/01/18 10:32:48;;;;;;;18.70;16.80;;;-0.50;94.10;;;;;;5052974;28;20683;-87
2024/01/18 10:35:32;;;;;;;21.50;19.13;;;-0.40;94.10;;;;;;5052228;28;20181;-86
2024/01/18 10:38:06;;;;;;;20.47;18.30;;;-0.20;94.00;;;;;;5051571;28;20809;-85
2024/01/18 10:40:38;;;;;;;20.67;18.40;;;-0.20;93.90;;;;;;5052849;28;20198;-86
2024/01/18 10:43:07;;;;;;;21.23;19.43;;;-0.20;93.80;;;;;;5051637;28;20719;-86
2024/01/18 10:45:33;;;;;;;19.47;17.87;;;-0.10;93.70;;;;;;5051537;28;20203;-86
2024/01/18 10:47:59;;;;;;;21.60;19.53;;;-0.10;93.60;;;;;;5051579;28;20572;-87
2024/01/18 10:50:26;;;;;;;21.43;19.33;;;-0.10;93.40;;;;;;5053482;28;20266;-87
2024/01/18 10:52:52;;;;;;;21.43;19.30;;;-0.10;93.20;;;;;;5053058;28;20178;-86
2024/01/18 10:55:18;;;;;;;22.57;20.27;;;0.00;93.20;;;;;;5053028;28;20171;-87
2024/01/18 10:57:44;;;;;;;23.47;21.33;;;-0.10;93.00;;;;;;5051657;28;20203;-86
2024/01/18 11:00:15;;;;;;;23.50;21.13;;;0.00;93.00;;;;;;5052881;28;20179;-86
2024/01/18 11:02:43;;;;;;;22.33;20.33;;;0.00;93.00;;;;;;5052990;28;20194;-86
2024/01/18 11:05:10;;;;;;;23.03;20.40;;;0.20;92.90;;;;;;5052682;28;20175;-86
2024/01/18 11:07:37;;;;;;;21.13;19.27;;;0.30;92.80;;;;;;5051312;28;20252;-86
2024/01/18 11:10:12;;;;;;;20.63;18.80;;;0.60;92.80;;;;;;5051458;28;20545;-86
2024/01/18 11:12:42;;;;;;;20.70;18.70;;;0.60;92.60;;;;;;5052913;28;20346;-86
2024/01/18 11:15:10;;;;;;;20.73;18.90;;;0.70;92.30;;;;;;5053586;28;20217;-86
2024/01/18 11:17:45;;;;;;;20.97;19.27;;;0.80;92.10;;;;;;5056221;28;20200;-86
2024/01/18 11:20:11;;;;;;;19.90;18.30;;;1.00;92.00;;;;;;5056211;28;20302;-86
2024/01/18 11:22:39;;;;;;;22.20;20.50;;;1.10;91.80;;;;;;5055974;28;20344;-86
2024/01/18 11:25:09;;;;;;;15.03;13.70;;;1.20;91.50;;;;;;5056066;28;20541;-84
2024/01/18 11:27:41;;;;;;;14.57;13.03;;;1.30;91.20;;;;;;5056005;28;20698;-86
2024/01/18 11:30:10;;;;;;;13.50;12.27;;;1.40;90.90;;;;;;5056099;28;20307;-86
2024/01/18 11:32:37;;;;;;;14.33;13.10;;;1.70;91.00;;;;;;5054583;28;20176;-86
2024/01/18 11:35:13;;;;;;;13.27;12.27;;;1.80;90.40;;;;;;5054615;28;20664;-86
2024/01/18 11:37:39;;;;;;;13.93;12.97;;;1.90;89.70;;;;;;5055613;28;20192;-86
2024/01/18 11:40:06;;;;;;;14.70;13.70;;;1.90;89.40;;;;;;5054641;28;20183;-86
2024/01/18 11:42:33;;;;;;;16.63;15.23;;;1.80;89.40;;;;;;5054341;28;20208;-86
2024/01/18 11:45:12;;;;;;;15.63;14.00;;;2.00;89.60;;;;;;5054305;28;20177;-85
2024/01/18 11:47:39;;;;;;;14.87;13.53;;;2.00;89.40;;;;;;5055700;28;20196;-86
2024/01/18 11:50:08;;;;;;;15.70;14.70;;;2.10;89.20;;;;;;5054358;28;20176;-86
2024/01/18 11:52:35;;;;;;;15.70;14.33;;;1.90;88.50;;;;;;5055639;28;20251;-86
2024/01/18 11:55:02;;;;;;;16.30;15.00;;;2.00;88.80;;;;;;5055643;28;20172;-86
2024/01/18 11:57:27;;;;;;;16.77;15.07;;;2.00;88.50;;;;;;5055388;28;20188;-87
2024/01/18 11:59:54;;;;;;;16.30;14.97;;;2.00;88.30;;;;;;5055464;28;20177;-85
2024/01/18 12:02:21;;;;;;;14.53;13.63;;;2.30;88.60;;;;;;5055354;28;20195;-86
2024/01/18 12:04:48;;;;;;;16.37;14.87;;;2.40;88.30;;;;;;5055236;28;20199;-85
2024/01/18 12:07:15;;;;;;;17.20;15.60;;;2.50;87.90;;;;;;5054028;28;20578;-86
2024/01/18 12:09:41;;;;;;;17.50;16.10;;;2.70;87.60;;;;;;5055574;28;20175;-85
2024/01/18 12:12:07;;;;;;;18.80;17.17;;;2.70;86.90;;;;;;5055568;28;20168;-85
2024/01/18 12:14:38;;;;;;;23.47;17.23;;;2.60;86.30;;;;;;5055512;28;20179;-86
2024/01/18 12:17:04;;;;;;;20.20;18.70;;;2.60;86.50;;;;;;5055249;28;20205;-85
2024/01/18 12:19:34;;;;;;;17.77;16.47;;;2.60;86.50;;;;;;5055414;28;20176;-86
2024/01/18 12:22:08;;;;;;;17.93;16.60;;;2.80;86.40;;;;;;5055412;28;20207;-86
2024/01/18 12:24:34;;;;;;;18.57;16.80;;;2.90;86.10;;;;;;5053968;28;20167;-86
2024/01/18 12:27:00;;;;;;;19.10;17.63;;;3.00;86.00;;;;;;5054916;28;20203;-86